createdAt,value
2017-12-27T00:00:40.121Z,10.50
2017-12-27T00:03:13.166Z,10.60
2017-12-27T00:05:46.180Z,10.03
2017-12-27T00:08:19.246Z,10.93
2017-12-27T00:10:52.068Z,12.93
2017-12-27T00:13:25.033Z,10.97
2017-12-27T00:15:58.123Z,10.57
2017-12-27T00:18:31.198Z,10.77
2017-12-27T00:21:04.136Z,10.33
2017-12-27T00:23:37.100Z,9.90
2017-12-27T00:26:10.053Z,10.57
2017-12-27T00:28:42.949Z,11.20
2017-12-27T00:31:10.362Z,12.30
2017-12-27T00:33:37.771Z,10.73
2017-12-27T00:36:05.181Z,11.97
2017-12-27T00:38:32.605Z,10.47
2017-12-27T00:41:00.000Z,10.80
2017-12-27T00:43:27.405Z,10.07
2017-12-27T00:45:54.814Z,10.20
2017-12-27T00:48:22.208Z,9.20
2017-12-27T00:50:49.607Z,10.40
2017-12-27T00:53:17.020Z,10.27
2017-12-27T00:55:44.424Z,9.67
2017-12-27T00:58:11.845Z,9.47
2017-12-27T01:00:39.266Z,11.67
2017-12-27T01:03:06.670Z,11.93
2017-12-27T01:05:34.069Z,10.50
2017-12-27T01:08:01.516Z,11.43
2017-12-27T01:10:28.928Z,10.73
2017-12-27T01:12:56.334Z,10.80
2017-12-27T01:15:23.745Z,11.20
2017-12-27T01:17:51.211Z,11.03
2017-12-27T01:20:18.608Z,11.17
2017-12-27T01:22:46.040Z,10.50
2017-12-27T01:25:13.450Z,11.47
2017-12-27T01:27:40.852Z,11.53
2017-12-27T01:30:08.269Z,10.70
2017-12-27T01:32:35.680Z,10.87
2017-12-27T01:35:03.096Z,11.57
2017-12-27T01:37:30.517Z,12.00
2017-12-27T01:39:57.940Z,11.90
2017-12-27T01:42:25.330Z,9.33
2017-12-27T01:44:52.798Z,10.07
2017-12-27T01:47:20.190Z,10.20
2017-12-27T01:49:47.589Z,9.50
2017-12-27T01:52:15.000Z,9.50
2017-12-27T01:54:42.417Z,9.43
2017-12-27T01:57:09.812Z,8.60
2017-12-27T01:59:37.220Z,9.77
2017-12-27T02:02:04.619Z,9.90
2017-12-27T02:04:32.008Z,9.23
2017-12-27T02:06:59.413Z,9.40
2017-12-27T02:09:26.813Z,9.60
2017-12-27T02:11:54.228Z,10.17
2017-12-27T02:14:21.636Z,9.87
2017-12-27T02:16:49.037Z,10.27
2017-12-27T02:19:16.436Z,8.50
2017-12-27T02:21:43.841Z,9.13
2017-12-27T02:24:11.232Z,8.70
2017-12-27T02:26:38.636Z,8.50
2017-12-27T02:29:06.044Z,8.67
2017-12-27T02:31:33.448Z,9.27
2017-12-27T02:34:00.860Z,9.20
2017-12-27T02:36:28.260Z,9.03
2017-12-27T02:38:56.620Z,8.33
2017-12-27T02:41:24.008Z,8.77
2017-12-27T02:43:51.412Z,8.83
2017-12-27T02:46:18.825Z,9.43
2017-12-27T02:48:46.224Z,9.37
2017-12-27T02:51:13.621Z,8.60
2017-12-27T02:53:41.025Z,8.93
2017-12-27T02:56:08.425Z,8.37
2017-12-27T02:58:35.836Z,8.60
2017-12-27T03:01:03.245Z,9.13
2017-12-27T03:03:30.647Z,9.73
2017-12-27T03:05:58.045Z,9.63
2017-12-27T03:08:25.445Z,9.90
2017-12-27T03:10:52.849Z,8.93
2017-12-27T03:13:20.297Z,9.23
2017-12-27T03:15:47.693Z,9.70
2017-12-27T03:18:15.084Z,9.30
2017-12-27T03:20:42.493Z,9.67
2017-12-27T03:23:09.928Z,10.30
2017-12-27T03:25:37.317Z,8.83
2017-12-27T03:28:04.713Z,9.00
2017-12-27T03:30:32.117Z,8.70
2017-12-27T03:32:59.518Z,8.70
2017-12-27T03:35:26.936Z,8.80
2017-12-27T03:37:54.341Z,8.30
2017-12-27T03:40:21.734Z,8.33
2017-12-27T03:42:49.124Z,8.47
2017-12-27T03:45:16.517Z,8.20
2017-12-27T03:47:43.947Z,8.50
2017-12-27T03:50:11.344Z,8.57
2017-12-27T03:52:38.740Z,8.20
2017-12-27T03:55:06.152Z,7.60
2017-12-27T03:57:33.553Z,10.10
2017-12-27T04:00:00.940Z,8.17
2017-12-27T04:02:28.344Z,8.20
2017-12-27T04:04:55.736Z,8.60
2017-12-27T04:07:23.140Z,8.20
2017-12-27T04:09:50.535Z,7.60
2017-12-27T04:12:17.933Z,8.50
2017-12-27T04:14:45.328Z,8.40
2017-12-27T04:17:12.794Z,8.00
2017-12-27T04:19:40.189Z,7.87
2017-12-27T04:22:07.592Z,8.23
2017-12-27T04:24:35.009Z,8.37
2017-12-27T04:27:02.400Z,7.73
2017-12-27T04:29:29.800Z,7.27
2017-12-27T04:31:57.205Z,9.73
2017-12-27T04:34:24.601Z,8.57
2017-12-27T04:36:52.004Z,8.17
2017-12-27T04:39:19.401Z,7.47
2017-12-27T04:41:46.800Z,8.20
2017-12-27T04:44:14.214Z,8.30
2017-12-27T04:46:41.608Z,8.40
2017-12-27T04:49:09.007Z,8.77
2017-12-27T04:51:36.408Z,7.27
2017-12-27T04:54:03.798Z,8.43
2017-12-27T04:56:31.204Z,8.70
2017-12-27T04:58:58.610Z,8.47
2017-12-27T05:01:26.004Z,8.97
2017-12-27T05:03:53.413Z,7.70
2017-12-27T05:06:20.809Z,7.77
2017-12-27T05:08:48.217Z,7.87
2017-12-27T05:11:15.609Z,7.57
2017-12-27T05:13:43.025Z,8.40
2017-12-27T05:16:10.430Z,8.20
2017-12-27T05:18:37.820Z,7.20
2017-12-27T05:21:05.232Z,8.47
2017-12-27T05:23:32.721Z,9.07
2017-12-27T05:26:00.119Z,7.30
2017-12-27T05:28:27.541Z,8.00
2017-12-27T05:30:54.936Z,8.70
2017-12-27T05:33:22.360Z,8.23
2017-12-27T05:35:49.760Z,8.00
2017-12-27T05:38:17.174Z,8.43
2017-12-27T05:40:44.576Z,7.97
2017-12-27T05:43:11.968Z,8.57
2017-12-27T05:45:39.376Z,7.80
2017-12-27T05:48:06.784Z,7.93
2017-12-27T05:50:34.176Z,7.97
2017-12-27T05:53:01.601Z,9.33
2017-12-27T05:55:28.996Z,7.23
2017-12-27T05:57:56.409Z,7.87
2017-12-27T06:00:23.808Z,7.73
2017-12-27T06:02:51.212Z,8.67
2017-12-27T06:05:18.616Z,7.90
2017-12-27T06:07:46.012Z,8.17
2017-12-27T06:10:13.437Z,7.63
2017-12-27T06:12:40.833Z,7.30
2017-12-27T06:15:08.235Z,8.00
2017-12-27T06:17:35.631Z,7.20
2017-12-27T06:20:03.020Z,6.93
2017-12-27T06:22:30.430Z,6.50
2017-12-27T06:24:57.836Z,6.40
2017-12-27T06:27:25.232Z,6.20
2017-12-27T06:29:52.637Z,6.20
2017-12-27T06:32:20.033Z,6.03
2017-12-27T06:34:47.451Z,6.60
2017-12-27T06:37:14.846Z,6.97
2017-12-27T06:39:42.248Z,7.00
2017-12-27T06:42:09.657Z,6.30
2017-12-27T06:44:37.060Z,6.80
2017-12-27T06:47:04.470Z,7.67
2017-12-27T06:49:31.860Z,6.40
2017-12-27T06:51:59.288Z,6.80
2017-12-27T06:54:26.684Z,7.10
2017-12-27T06:56:54.089Z,7.20
2017-12-27T06:59:21.500Z,7.40
2017-12-27T07:01:48.902Z,7.23
2017-12-27T07:04:16.296Z,7.20
2017-12-27T07:06:43.707Z,7.50
2017-12-27T07:09:11.098Z,7.47
2017-12-27T07:11:38.512Z,8.33
2017-12-27T07:14:05.908Z,8.40
2017-12-27T07:16:33.313Z,7.70
2017-12-27T07:19:00.728Z,7.87
2017-12-27T07:21:28.117Z,8.43
2017-12-27T07:23:55.529Z,8.07
2017-12-27T07:26:22.924Z,7.40
2017-12-27T07:28:50.317Z,7.70
2017-12-27T07:31:17.716Z,7.70
2017-12-27T07:33:45.108Z,8.67
2017-12-27T07:36:12.525Z,7.50
2017-12-27T07:38:39.921Z,7.50
2017-12-27T07:41:07.320Z,7.50
2017-12-27T07:43:34.732Z,7.60
2017-12-27T07:46:02.124Z,7.70
2017-12-27T07:48:29.540Z,7.00
2017-12-27T07:50:56.934Z,7.53
2017-12-27T07:53:24.340Z,7.83
2017-12-27T07:55:51.740Z,7.43
2017-12-27T07:58:19.140Z,7.93
2017-12-27T08:00:46.544Z,8.20
2017-12-27T08:03:13.942Z,9.03
2017-12-27T08:05:41.344Z,8.70
2017-12-27T08:08:08.755Z,9.00
2017-12-27T08:10:36.145Z,8.53
2017-12-27T08:13:03.569Z,7.80
2017-12-27T08:15:30.969Z,7.90
2017-12-27T08:17:58.372Z,8.50
2017-12-27T08:20:25.779Z,9.43
2017-12-27T08:22:53.169Z,8.80
2017-12-27T08:25:20.585Z,7.80
2017-12-27T08:27:48.009Z,8.93
2017-12-27T08:30:15.408Z,9.10
2017-12-27T08:32:42.822Z,10.03
2017-12-27T08:35:10.238Z,10.30
2017-12-27T08:37:37.688Z,9.20
2017-12-27T08:40:05.157Z,10.33
2017-12-27T08:42:32.537Z,9.30
2017-12-27T08:44:59.948Z,8.73
2017-12-27T08:47:27.344Z,8.60
2017-12-27T08:49:54.777Z,8.87
2017-12-27T08:52:22.193Z,9.00
2017-12-27T08:54:49.612Z,9.63
2017-12-27T08:57:17.026Z,10.40
2017-12-27T08:59:44.437Z,10.20
2017-12-27T09:02:11.876Z,9.67
2017-12-27T09:04:39.292Z,7.90
2017-12-27T09:07:06.684Z,8.70
2017-12-27T09:09:34.093Z,9.93
2017-12-27T09:12:01.510Z,10.00
2017-12-27T09:14:28.961Z,10.27
2017-12-27T09:16:56.346Z,9.83
2017-12-27T09:19:23.805Z,9.90
2017-12-27T09:21:51.200Z,9.47
2017-12-27T09:24:18.648Z,10.93
2017-12-27T09:26:46.084Z,9.90
2017-12-27T09:29:13.492Z,10.30
2017-12-27T09:31:41.019Z,10.30
2017-12-27T09:34:08.461Z,10.43
2017-12-27T09:36:36.757Z,9.70
2017-12-27T09:39:04.486Z,10.63
2017-12-27T09:41:31.916Z,10.40
2017-12-27T09:43:59.315Z,10.87
2017-12-27T09:46:26.731Z,10.73
2017-12-27T09:48:54.149Z,10.83
2017-12-27T09:51:21.573Z,11.90
2017-12-27T09:53:48.993Z,10.77
2017-12-27T09:56:16.481Z,10.87
2017-12-27T09:58:43.914Z,11.43
2017-12-27T10:01:11.322Z,11.10
2017-12-27T10:03:38.740Z,11.70
2017-12-27T10:06:06.206Z,11.70
2017-12-27T10:08:34.681Z,11.80
2017-12-27T10:11:02.101Z,11.77
2017-12-27T10:13:29.548Z,12.27
2017-12-27T10:15:56.992Z,11.00
2017-12-27T10:31:48.252Z,11.30
2017-12-27T10:34:15.676Z,11.00
2017-12-27T10:36:43.088Z,11.80
2017-12-27T10:39:10.498Z,11.30
2017-12-27T10:41:37.908Z,10.70
2017-12-27T10:44:05.332Z,10.67
2017-12-27T10:46:32.776Z,10.40
2017-12-27T10:49:00.177Z,11.00
2017-12-27T10:51:27.568Z,9.80
2017-12-27T10:53:55.106Z,10.97
2017-12-27T10:56:22.508Z,10.20
2017-12-27T10:58:49.926Z,10.50
2017-12-27T11:01:17.375Z,10.50
2017-12-27T11:03:44.804Z,12.50
2017-12-27T11:06:12.288Z,10.90
2017-12-27T11:08:39.704Z,11.20
2017-12-27T11:11:07.120Z,10.50
2017-12-27T11:13:34.535Z,10.13
2017-12-27T11:16:01.929Z,10.60
2017-12-27T11:18:46.241Z,10.57
2017-12-27T11:21:13.640Z,11.57
2017-12-27T11:23:41.061Z,11.47
2017-12-27T11:26:08.466Z,11.67
2017-12-27T11:28:35.881Z,12.10
2017-12-27T11:31:03.294Z,11.00
2017-12-27T11:33:30.712Z,10.00
2017-12-27T11:35:58.138Z,11.03
2017-12-27T11:38:25.537Z,10.60
2017-12-27T11:40:52.945Z,10.23
2017-12-27T11:43:20.401Z,11.03
2017-12-27T11:45:47.822Z,10.70
2017-12-27T11:48:15.249Z,9.63
2017-12-27T11:50:42.645Z,9.70
2017-12-27T11:53:10.052Z,10.47
2017-12-27T11:55:37.478Z,10.10
2017-12-27T11:58:04.899Z,10.43
2017-12-27T12:00:43.806Z,9.90
2017-12-27T12:03:11.212Z,12.50
2017-12-27T12:05:38.636Z,11.77
2017-12-27T12:08:08.308Z,12.60
2017-12-27T12:10:35.719Z,12.67
2017-12-27T12:13:03.165Z,12.30
2017-12-27T12:15:30.600Z,12.77
2017-12-27T12:17:58.009Z,12.70
2017-12-27T12:20:25.421Z,11.97
2017-12-27T12:22:54.075Z,12.73
2017-12-27T12:25:21.525Z,11.90
2017-12-27T12:27:48.972Z,12.67
2017-12-27T12:30:16.377Z,12.67
2017-12-27T12:32:43.849Z,11.10
2017-12-27T12:35:11.242Z,10.47
2017-12-27T12:37:38.649Z,9.93
2017-12-27T12:40:06.056Z,10.57
2017-12-27T12:42:33.469Z,10.40
2017-12-27T12:45:00.880Z,10.90
2017-12-27T12:47:28.297Z,10.63
2017-12-27T12:49:55.709Z,11.67
2017-12-27T12:52:23.129Z,10.80
2017-12-27T12:54:50.554Z,11.60
2017-12-27T12:57:17.956Z,10.57
2017-12-27T12:59:45.374Z,10.00
2017-12-27T13:02:12.828Z,10.67
2017-12-27T13:04:40.232Z,10.87
2017-12-27T13:07:07.644Z,10.20
2017-12-27T13:09:35.064Z,10.37
2017-12-27T13:12:02.476Z,10.20
2017-12-27T13:14:29.897Z,10.40
2017-12-27T13:16:57.301Z,11.30
2017-12-27T13:19:24.714Z,10.77
2017-12-27T13:21:52.120Z,9.70
2017-12-27T13:24:19.530Z,10.90
2017-12-27T13:26:46.957Z,10.63
2017-12-27T13:29:14.368Z,10.97
2017-12-27T13:31:41.781Z,10.57
2017-12-27T13:34:09.204Z,9.80
2017-12-27T13:36:36.624Z,10.50
2017-12-27T13:39:04.048Z,11.43
2017-12-27T13:41:31.456Z,10.80
2017-12-27T13:43:58.880Z,10.80
2017-12-27T13:46:26.290Z,10.53
2017-12-27T13:48:53.692Z,10.97
2017-12-27T13:51:21.122Z,11.13
2017-12-27T13:53:48.552Z,11.03
2017-12-27T13:56:15.954Z,10.80
2017-12-27T13:58:43.391Z,10.70
2017-12-27T14:01:10.800Z,10.47
2017-12-27T14:03:38.239Z,10.73
2017-12-27T14:06:05.666Z,10.90
2017-12-27T14:08:33.060Z,10.20
2017-12-27T14:11:00.500Z,9.77
2017-12-27T14:13:29.928Z,9.50
2017-12-27T14:15:57.345Z,9.77
2017-12-27T14:18:24.742Z,9.50
2017-12-27T14:20:52.180Z,9.60
2017-12-27T14:23:19.585Z,10.00
2017-12-27T14:25:46.985Z,10.30
2017-12-27T14:28:14.420Z,10.50
2017-12-27T14:30:42.265Z,11.37
2017-12-27T14:33:09.671Z,10.80
2017-12-27T14:35:37.112Z,10.10
2017-12-27T14:38:04.578Z,10.50
2017-12-27T14:40:31.997Z,10.17
2017-12-27T14:42:59.408Z,10.80
2017-12-27T14:45:26.823Z,11.30
2017-12-27T14:47:54.235Z,11.40
2017-12-27T14:50:21.644Z,10.93
2017-12-27T14:52:49.963Z,12.50
2017-12-27T14:55:17.361Z,12.47
2017-12-27T14:57:44.778Z,12.87
2017-12-27T15:00:12.206Z,13.73
2017-12-27T15:02:39.630Z,13.00
2017-12-27T15:05:07.050Z,13.10
2017-12-27T15:07:34.456Z,13.47
2017-12-27T15:10:01.861Z,12.60
2017-12-27T15:12:29.313Z,12.80
2017-12-27T15:14:56.732Z,12.73
2017-12-27T15:17:25.013Z,13.07
2017-12-27T15:19:52.416Z,13.40
2017-12-27T15:22:19.824Z,12.80
2017-12-27T15:24:54.430Z,14.07
2017-12-27T15:27:22.784Z,13.77
2017-12-27T15:29:50.189Z,13.63
2017-12-27T15:32:18.381Z,14.07
2017-12-27T15:34:45.808Z,15.27
2017-12-27T15:37:13.247Z,15.93
2017-12-27T15:39:40.668Z,15.10
2017-12-27T15:42:08.089Z,14.57
2017-12-27T15:44:35.505Z,14.80
2017-12-27T15:47:02.904Z,13.83
2017-12-27T15:49:30.325Z,14.13
2017-12-27T15:51:57.745Z,12.90
2017-12-27T15:54:25.144Z,12.33
2017-12-27T15:56:52.556Z,13.60
2017-12-27T15:59:20.848Z,13.13
2017-12-27T16:01:48.281Z,13.23
2017-12-27T16:04:15.695Z,12.93
2017-12-27T16:06:43.122Z,12.33
2017-12-27T16:09:10.545Z,11.90
2017-12-27T16:11:37.960Z,12.37
2017-12-27T16:14:05.381Z,13.43
2017-12-27T16:16:32.805Z,12.00
2017-12-27T16:19:00.226Z,13.13
2017-12-27T16:21:27.655Z,12.70
2017-12-27T16:23:55.072Z,13.10
2017-12-27T16:26:22.525Z,14.33
2017-12-27T16:28:49.929Z,13.73
2017-12-27T16:31:17.357Z,12.90
2017-12-27T16:33:44.767Z,12.80
2017-12-27T16:36:12.166Z,13.87
2017-12-27T16:38:39.585Z,13.07
2017-12-27T16:41:06.989Z,13.40
2017-12-27T16:43:34.401Z,13.20
2017-12-27T16:46:01.813Z,12.63
2017-12-27T16:48:29.218Z,13.87
2017-12-27T16:50:56.624Z,14.03
2017-12-27T16:53:24.046Z,13.53
2017-12-27T16:55:51.452Z,13.27
2017-12-27T16:58:18.852Z,13.77
2017-12-27T17:03:21.596Z,13.17
2017-12-27T17:05:49.017Z,13.23
2017-12-27T17:08:16.428Z,13.10
2017-12-27T17:10:43.868Z,13.00
2017-12-27T17:13:11.270Z,12.60
2017-12-27T17:15:38.684Z,13.27
2017-12-27T17:18:06.086Z,14.83
2017-12-27T17:20:33.538Z,14.50
2017-12-27T17:23:00.934Z,15.03
2017-12-27T17:25:28.337Z,16.40
2017-12-27T17:27:55.752Z,16.07
2017-12-27T17:30:23.162Z,16.90
2017-12-27T17:32:50.560Z,17.00
2017-12-27T17:35:17.977Z,16.73
2017-12-27T17:37:45.379Z,17.03
2017-12-27T17:40:12.808Z,16.07
2017-12-27T17:42:40.232Z,16.00
2017-12-27T17:45:07.651Z,15.57
2017-12-27T17:47:35.064Z,16.40
2017-12-27T17:50:02.481Z,16.00
2017-12-27T17:52:30.486Z,16.07
2017-12-27T17:54:57.929Z,16.13
2017-12-27T17:57:25.345Z,15.60
2017-12-27T17:59:52.764Z,16.10
2017-12-27T18:02:20.181Z,15.10
2017-12-27T18:04:47.601Z,16.00
2017-12-27T18:07:15.025Z,15.63
2017-12-27T18:09:42.470Z,15.70
2017-12-27T18:12:09.832Z,15.10
2017-12-27T18:14:37.241Z,15.40
2017-12-27T18:17:05.274Z,15.83
2017-12-27T18:19:32.749Z,15.43
2017-12-27T18:22:00.141Z,15.67
2017-12-27T18:24:27.553Z,15.30
2017-12-27T18:26:54.964Z,15.20
2017-12-27T18:29:22.372Z,16.40
2017-12-27T18:31:49.800Z,15.60
2017-12-27T18:34:17.208Z,16.20
2017-12-27T18:36:44.633Z,17.10
2017-12-27T18:39:12.053Z,15.00
2017-12-27T18:41:39.461Z,15.90
2017-12-27T18:44:06.944Z,16.97
2017-12-27T18:46:34.352Z,16.57
2017-12-27T18:49:01.748Z,16.33
2017-12-27T18:51:29.172Z,15.83
2017-12-27T18:53:56.602Z,14.57
2017-12-27T18:56:24.021Z,14.83
2017-12-27T18:58:51.432Z,15.10
2017-12-27T19:01:18.826Z,15.10
2017-12-27T19:03:46.228Z,15.87
2017-12-27T19:06:13.637Z,16.87
2017-12-27T19:08:41.055Z,16.50
2017-12-27T19:11:08.470Z,15.20
2017-12-27T19:13:35.872Z,17.17
2017-12-27T19:16:03.314Z,15.07
2017-12-27T19:18:30.719Z,17.80
2017-12-27T19:20:58.164Z,16.23
2017-12-27T19:23:25.591Z,15.83
2017-12-27T19:25:53.025Z,15.53
2017-12-27T19:28:20.445Z,16.00
2017-12-27T19:30:47.865Z,16.00
2017-12-27T19:33:15.270Z,16.93
2017-12-27T19:35:42.678Z,16.73
2017-12-27T19:38:10.088Z,17.50
2017-12-27T19:40:37.511Z,16.77
2017-12-27T19:43:04.956Z,16.80
2017-12-27T19:45:32.385Z,17.60
2017-12-27T19:47:59.779Z,16.20
2017-12-27T19:50:27.195Z,18.20
2017-12-27T19:52:54.621Z,17.73
2017-12-27T19:55:22.035Z,17.30
2017-12-27T19:57:49.469Z,15.73
2017-12-27T20:00:16.872Z,17.43
2017-12-27T20:02:44.277Z,16.37
2017-12-27T20:05:11.729Z,16.83
2017-12-27T20:07:39.133Z,16.97
2017-12-27T20:10:06.561Z,15.93
2017-12-27T20:12:34.009Z,16.93
2017-12-27T20:15:01.389Z,17.40
2017-12-27T20:17:28.825Z,17.57
2017-12-27T20:19:56.232Z,16.43
2017-12-27T20:22:23.660Z,16.93
2017-12-27T20:24:51.081Z,16.53
2017-12-27T20:27:18.489Z,17.50
2017-12-27T20:29:45.903Z,16.77
2017-12-27T20:32:13.324Z,17.33
2017-12-27T20:34:40.776Z,17.47
2017-12-27T20:37:08.191Z,17.40
2017-12-27T20:39:35.599Z,17.43
2017-12-27T20:42:03.038Z,17.87
2017-12-27T20:44:30.444Z,16.80
2017-12-27T20:46:57.909Z,17.57
2017-12-27T20:49:25.319Z,17.53
2017-12-27T20:51:52.725Z,17.03
2017-12-27T20:54:20.147Z,17.20
2017-12-27T20:56:47.559Z,17.43
2017-12-27T20:59:14.973Z,17.07
2017-12-27T21:01:42.377Z,17.37
2017-12-27T21:04:09.788Z,18.40
2017-12-27T21:06:37.208Z,19.57
2017-12-27T21:09:04.645Z,17.83
2017-12-27T21:11:32.089Z,17.53
2017-12-27T21:13:59.501Z,17.50
2017-12-27T21:16:26.911Z,16.37
2017-12-27T21:18:54.324Z,16.20
2017-12-27T21:21:21.762Z,15.20
2017-12-27T21:23:49.173Z,15.17
2017-12-27T21:26:16.584Z,15.43
2017-12-27T21:28:44.011Z,14.33
2017-12-27T21:31:11.445Z,14.00
2017-12-27T21:33:38.841Z,15.60
2017-12-27T21:36:06.266Z,15.10
2017-12-27T21:38:33.692Z,15.97
2017-12-27T21:41:01.103Z,16.07
2017-12-27T21:43:28.508Z,15.63
2017-12-27T21:45:55.912Z,15.90
2017-12-27T21:48:28.787Z,15.23
2017-12-27T21:50:56.180Z,15.03
2017-12-27T21:53:23.588Z,16.00
2017-12-27T21:55:51.002Z,16.20
2017-12-27T21:58:23.999Z,17.20
2017-12-27T22:00:57.109Z,16.70
2017-12-27T22:03:24.520Z,16.67
2017-12-27T22:05:51.929Z,15.63
2017-12-27T22:08:19.333Z,16.17
2017-12-27T22:10:46.784Z,17.23
2017-12-27T22:13:14.241Z,16.40
2017-12-27T22:15:41.649Z,16.77
2017-12-27T22:18:09.072Z,17.37
2017-12-27T22:20:42.030Z,16.60
2017-12-27T22:23:09.490Z,17.07
2017-12-27T22:25:36.899Z,16.50
2017-12-27T22:28:04.309Z,17.70
2017-12-27T22:30:31.733Z,17.73
2017-12-27T22:32:59.136Z,19.30
2017-12-27T22:35:26.582Z,18.67
2017-12-27T22:37:53.991Z,20.40
2017-12-27T22:40:21.429Z,22.10
2017-12-27T22:42:48.868Z,21.37
2017-12-27T22:45:16.294Z,22.87
2017-12-27T22:47:43.733Z,22.17
2017-12-27T22:50:11.220Z,24.67
2017-12-27T22:52:38.624Z,27.33
2017-12-27T22:55:06.038Z,30.73
2017-12-27T22:57:33.448Z,34.07
2017-12-27T23:00:00.860Z,33.40
2017-12-27T23:02:28.519Z,37.70
2017-12-27T23:04:55.913Z,39.67
2017-12-27T23:07:23.322Z,37.57
2017-12-27T23:09:50.729Z,37.57
2017-12-27T23:12:18.152Z,43.73
2017-12-27T23:14:45.560Z,39.93
2017-12-27T23:17:12.970Z,40.50
2017-12-27T23:19:40.404Z,37.07
2017-12-27T23:22:07.825Z,40.47
2017-12-27T23:24:35.264Z,43.63
2017-12-27T23:27:02.670Z,42.57
2017-12-27T23:29:30.081Z,42.23
2017-12-27T23:31:57.506Z,39.53
2017-12-27T23:34:24.928Z,37.20
2017-12-27T23:36:52.360Z,35.03
2017-12-27T23:39:19.760Z,31.03
2017-12-27T23:41:47.173Z,22.47
2017-12-27T23:44:14.592Z,23.40
2017-12-27T23:46:42.013Z,20.97
2017-12-27T23:49:09.449Z,18.30
2017-12-27T23:51:36.860Z,18.43
2017-12-27T23:54:04.284Z,18.40
2017-12-27T23:56:31.737Z,18.90
2017-12-27T23:58:59.183Z,20.47
